createdAt,value
2022-08-16T00:00:56.311Z,20.8
2022-08-16T00:02:02.471Z,20.5
2022-08-16T00:03:08.635Z,20.5
2022-08-16T00:04:14.797Z,20.5
2022-08-16T00:05:20.952Z,20.5
2022-08-16T00:06:26.137Z,20.5
2022-08-16T00:07:32.295Z,20.8
2022-08-16T00:08:38.457Z,20.8
2022-08-16T00:09:44.623Z,20.8
2022-08-16T00:10:50.815Z,20.5
2022-08-16T00:11:56.956Z,20.8
2022-08-16T00:13:03.122Z,20.8
2022-08-16T00:14:09.285Z,20.8
2022-08-16T00:15:15.442Z,20.5
2022-08-16T00:16:21.610Z,20.2
2022-08-16T00:17:27.785Z,21.2
2022-08-16T00:18:33.941Z,20.8
2022-08-16T00:19:40.110Z,21.2
2022-08-16T00:20:45.279Z,20.8
2022-08-16T00:21:51.453Z,20.5
2022-08-16T00:22:57.626Z,20.2
2022-08-16T00:24:03.780Z,21.2
2022-08-16T00:25:09.951Z,20.8
2022-08-16T00:26:16.106Z,21.2
2022-08-16T00:27:22.279Z,20.8
2022-08-16T00:28:28.446Z,20.5
2022-08-16T00:29:34.622Z,20.8
2022-08-16T00:30:40.850Z,20.8
2022-08-16T00:31:46.955Z,20.8
2022-08-16T00:32:53.149Z,20.5
2022-08-16T00:33:59.306Z,20.5
2022-08-16T00:35:04.481Z,20.5
2022-08-16T00:36:10.665Z,20.8
2022-08-16T00:37:16.830Z,20.8
2022-08-16T00:38:23.003Z,20.5
2022-08-16T00:39:29.174Z,20.5
2022-08-16T00:40:35.329Z,20.8
2022-08-16T00:41:41.521Z,20.5
2022-08-16T00:42:47.675Z,20.2
2022-08-16T00:43:53.842Z,20.5
2022-08-16T00:45:00.010Z,20.2
2022-08-16T00:46:06.185Z,20.5
2022-08-16T00:47:12.355Z,20.8
2022-08-16T00:48:18.522Z,20.8
2022-08-16T00:49:23.705Z,20.5
2022-08-16T00:50:29.871Z,19.9
2022-08-16T00:51:36.028Z,20.8
2022-08-16T00:52:42.201Z,19.9
2022-08-16T00:53:48.374Z,20.5
2022-08-16T00:54:54.544Z,20.8
2022-08-16T00:56:00.719Z,20.2
2022-08-16T00:57:06.890Z,20.5
2022-08-16T00:58:13.056Z,20.2
2022-08-16T00:59:19.232Z,20.2
2022-08-16T01:00:25.402Z,20.5
2022-08-16T01:01:31.568Z,19.9
2022-08-16T01:02:37.744Z,20.2
2022-08-16T01:03:43.913Z,20.5
2022-08-16T01:04:50.094Z,20.2
2022-08-16T01:05:55.270Z,20.8
2022-08-16T01:07:01.448Z,20.5
2022-08-16T01:08:07.683Z,20.5
2022-08-16T01:09:13.797Z,20.8
2022-08-16T01:10:19.964Z,20.2
2022-08-16T01:11:26.133Z,20.2
2022-08-16T01:12:32.306Z,20.2
2022-08-16T01:13:38.481Z,20.5
2022-08-16T01:14:44.663Z,20.5
2022-08-16T01:15:50.831Z,20.5
2022-08-16T01:16:57.007Z,20.5
2022-08-16T01:18:03.160Z,20.5
2022-08-16T01:19:09.333Z,20.5
2022-08-16T01:20:14.526Z,20.5
2022-08-16T01:21:20.700Z,20.2
2022-08-16T01:22:26.859Z,20.5
2022-08-16T01:23:33.037Z,20.5
2022-08-16T01:24:39.208Z,20.5
2022-08-16T01:25:45.361Z,20.5
2022-08-16T01:26:51.534Z,20.2
2022-08-16T01:27:57.705Z,20.2
2022-08-16T01:29:03.875Z,20.5
2022-08-16T01:30:10.054Z,20.2
2022-08-16T01:31:16.220Z,20.2
2022-08-16T01:32:22.387Z,20.5
2022-08-16T01:33:28.571Z,20.5
2022-08-16T01:34:33.743Z,20.5
2022-08-16T01:35:39.919Z,20.2
2022-08-16T01:36:46.103Z,20.2
2022-08-16T01:37:52.259Z,20.5
2022-08-16T01:38:58.428Z,20.5
2022-08-16T01:40:04.598Z,20.5
2022-08-16T01:41:10.771Z,20.2
2022-08-16T01:42:16.942Z,20.5
2022-08-16T01:43:23.117Z,20.2
2022-08-16T01:44:29.280Z,20.2
2022-08-16T01:45:35.452Z,20.8
2022-08-16T01:46:41.620Z,20.2
2022-08-16T01:47:47.794Z,19.9
2022-08-16T01:48:52.989Z,20.8
2022-08-16T01:49:59.160Z,20.2
2022-08-16T01:51:05.333Z,20.5
2022-08-16T01:52:11.509Z,21.2
2022-08-16T01:53:17.680Z,20.8
2022-08-16T01:54:23.845Z,20.2
2022-08-16T01:55:30.016Z,20.2
2022-08-16T01:56:36.187Z,20.2
2022-08-16T01:57:42.359Z,19.9
2022-08-16T01:58:48.529Z,20.2
2022-08-16T01:59:54.707Z,20.2
2022-08-16T02:01:00.875Z,20.2
2022-08-16T02:02:07.056Z,20.2
2022-08-16T02:03:12.270Z,20.2
2022-08-16T02:04:18.414Z,20.5
2022-08-16T02:05:24.587Z,20.2
2022-08-16T02:06:30.763Z,19.9
2022-08-16T02:07:35.963Z,20.2
2022-08-16T02:08:42.136Z,20.2
2022-08-16T02:09:48.313Z,20.2
2022-08-16T02:10:54.486Z,20.2
2022-08-16T02:12:00.665Z,20.2
2022-08-16T02:13:06.845Z,19.9
2022-08-16T02:14:13.029Z,20.2
2022-08-16T02:15:19.196Z,20.2
2022-08-16T02:16:25.372Z,20.2
2022-08-16T02:17:31.572Z,19.9
2022-08-16T02:18:37.737Z,19.9
2022-08-16T02:19:43.917Z,20.2
2022-08-16T02:20:50.101Z,19.9
2022-08-16T02:21:55.302Z,20.2
2022-08-16T02:23:01.478Z,19.9
2022-08-16T02:24:07.652Z,20.5
2022-08-16T02:25:13.820Z,19.9
2022-08-16T02:26:19.995Z,19.9
2022-08-16T02:27:26.173Z,19.9
2022-08-16T02:28:32.345Z,20.2
2022-08-16T02:29:38.516Z,20.2
2022-08-16T02:30:44.693Z,20.2
2022-08-16T02:31:50.865Z,19.9
2022-08-16T02:32:57.053Z,20.5
2022-08-16T02:34:03.224Z,19.9
2022-08-16T02:35:09.392Z,19.6
2022-08-16T02:36:14.616Z,19.9
2022-08-16T02:37:20.757Z,20.2
2022-08-16T02:38:26.928Z,19.9
2022-08-16T02:39:33.104Z,19.9
2022-08-16T02:40:39.298Z,20.2
2022-08-16T02:41:45.453Z,19.6
2022-08-16T02:42:51.618Z,20.5
2022-08-16T02:43:57.795Z,19.9
2022-08-16T02:45:03.977Z,20.2
2022-08-16T02:46:10.141Z,19.9
2022-08-16T02:47:16.324Z,20.2
2022-08-16T02:48:22.488Z,19.9
2022-08-16T02:49:28.671Z,20.5
2022-08-16T02:50:33.846Z,20.2
2022-08-16T02:51:40.015Z,20.2
2022-08-16T02:52:46.193Z,20.2
2022-08-16T02:53:52.360Z,20.2
2022-08-16T02:54:58.542Z,19.9
2022-08-16T02:56:04.711Z,20.2
2022-08-16T02:57:10.895Z,20.2
2022-08-16T02:58:17.066Z,19.6
2022-08-16T02:59:23.267Z,19.6
2022-08-16T03:00:29.417Z,19.9
2022-08-16T03:01:35.589Z,19.6
2022-08-16T03:02:41.765Z,19.6
2022-08-16T03:03:47.959Z,19.9
2022-08-16T03:04:54.145Z,19.9
2022-08-16T03:05:59.326Z,20.2
2022-08-16T03:07:05.510Z,19.6
2022-08-16T03:08:11.679Z,20.2
2022-08-16T03:09:17.854Z,19.9
2022-08-16T03:10:24.053Z,19.9
2022-08-16T03:11:30.243Z,19.9
2022-08-16T03:12:36.412Z,19.9
2022-08-16T03:13:42.593Z,19.6
2022-08-16T03:14:48.776Z,19.9
2022-08-16T03:15:54.960Z,20.5
2022-08-16T03:17:01.148Z,19.9
2022-08-16T03:18:07.329Z,19.9
2022-08-16T03:19:13.500Z,20.2
2022-08-16T03:20:18.691Z,19.9
2022-08-16T03:21:24.874Z,19.9
2022-08-16T03:22:31.061Z,19.9
2022-08-16T03:23:37.236Z,19.9
2022-08-16T03:24:43.421Z,20.2
2022-08-16T03:25:49.613Z,19.9
2022-08-16T03:26:55.799Z,20.8
2022-08-16T03:28:01.977Z,19.9
2022-08-16T03:29:08.161Z,19.9
2022-08-16T03:30:14.345Z,20.2
2022-08-16T03:31:20.536Z,19.9
2022-08-16T03:32:26.714Z,19.9
2022-08-16T03:33:32.897Z,20.2
2022-08-16T03:34:38.098Z,19.6
2022-08-16T03:35:44.284Z,19.9
2022-08-16T03:36:50.500Z,19.9
2022-08-16T03:37:56.650Z,19.9
2022-08-16T03:39:02.834Z,20.2
2022-08-16T03:40:09.013Z,19.9
2022-08-16T03:41:15.202Z,19.6
2022-08-16T03:42:21.379Z,19.6
2022-08-16T03:43:27.570Z,19.9
2022-08-16T03:44:33.749Z,19.9
2022-08-16T03:45:39.929Z,19.2
2022-08-16T03:46:46.105Z,19.9
2022-08-16T03:47:52.285Z,19.9
2022-08-16T03:48:57.502Z,19.6
2022-08-16T03:50:03.669Z,19.9
2022-08-16T03:51:09.862Z,20.2
2022-08-16T03:52:16.075Z,19.6
2022-08-16T03:53:22.242Z,19.9
2022-08-16T03:54:28.431Z,19.6
2022-08-16T03:55:34.616Z,19.9
2022-08-16T03:56:40.802Z,20.2
2022-08-16T03:57:46.985Z,19.6
2022-08-16T03:58:53.184Z,20.2
2022-08-16T03:59:59.363Z,19.9
2022-08-16T04:01:05.542Z,19.9
2022-08-16T04:02:11.749Z,19.6
2022-08-16T04:03:16.931Z,19.9
2022-08-16T04:04:23.115Z,19.6
2022-08-16T04:05:29.307Z,19.9
2022-08-16T04:06:35.495Z,20.2
2022-08-16T04:07:41.687Z,19.9
2022-08-16T04:08:47.881Z,19.9
2022-08-16T04:09:54.065Z,19.2
2022-08-16T04:11:00.262Z,19.6
2022-08-16T04:12:06.468Z,19.9
2022-08-16T04:13:12.641Z,19.6
2022-08-16T04:14:18.846Z,19.6
2022-08-16T04:15:25.037Z,19.9
2022-08-16T04:16:31.230Z,19.6
2022-08-16T04:17:36.435Z,19.9
2022-08-16T04:18:42.622Z,19.6
2022-08-16T04:19:48.797Z,19.6
2022-08-16T04:20:54.984Z,19.2
2022-08-16T04:22:01.167Z,19.9
2022-08-16T04:23:07.356Z,19.2
2022-08-16T04:24:13.543Z,19.9
2022-08-16T04:25:19.741Z,19.9
2022-08-16T04:26:25.908Z,19.6
2022-08-16T04:27:32.087Z,19.2
2022-08-16T04:28:38.274Z,19.6
2022-08-16T04:29:44.466Z,19.2
2022-08-16T04:30:50.695Z,19.6
2022-08-16T04:31:55.858Z,19.9
2022-08-16T04:33:02.042Z,19.6
2022-08-16T04:34:08.220Z,19.9
2022-08-16T04:35:14.409Z,19.6
2022-08-16T04:36:20.601Z,19.6
2022-08-16T04:37:26.783Z,19.9
2022-08-16T04:38:32.966Z,19.9
2022-08-16T04:39:39.148Z,19.6
2022-08-16T04:40:45.335Z,19.6
2022-08-16T04:41:51.528Z,19.6
2022-08-16T04:42:57.716Z,19.6
2022-08-16T04:44:03.891Z,19.6
2022-08-16T04:45:10.064Z,19.6
2022-08-16T04:46:15.257Z,19.2
2022-08-16T04:47:21.434Z,19.6
2022-08-16T04:48:27.606Z,19.6
2022-08-16T04:49:33.800Z,19.2
2022-08-16T04:50:39.977Z,18.9
2022-08-16T04:51:46.163Z,19.9
2022-08-16T04:52:52.344Z,19.6
2022-08-16T04:53:58.538Z,19.6
2022-08-16T04:55:04.717Z,19.9
2022-08-16T04:56:10.892Z,19.6
2022-08-16T04:57:17.076Z,19.2
2022-08-16T04:58:23.265Z,19.9
2022-08-16T04:59:29.463Z,19.2
2022-08-16T05:00:34.659Z,19.6
2022-08-16T05:01:40.825Z,19.6
2022-08-16T05:02:47.015Z,19.9
2022-08-16T05:03:53.187Z,19.9
2022-08-16T05:04:59.359Z,18.9
2022-08-16T05:06:05.534Z,19.6
2022-08-16T05:07:11.708Z,19.9
2022-08-16T05:08:17.888Z,19.2
2022-08-16T05:09:24.065Z,19.6
2022-08-16T05:10:30.238Z,19.2
2022-08-16T05:11:36.404Z,19.6
2022-08-16T05:12:42.564Z,19.2
2022-08-16T05:13:48.736Z,19.2
2022-08-16T05:14:53.911Z,19.6
2022-08-16T05:16:00.076Z,19.6
2022-08-16T05:17:06.224Z,19.2
2022-08-16T05:18:12.369Z,19.9
2022-08-16T05:19:18.547Z,19.9
2022-08-16T05:20:24.668Z,19.6
2022-08-16T05:21:30.836Z,19.2
2022-08-16T05:22:36.951Z,19.2
2022-08-16T05:23:43.083Z,18.9
2022-08-16T05:24:49.221Z,18.9
2022-08-16T05:25:55.355Z,19.2
2022-08-16T05:27:01.468Z,19.6
2022-08-16T05:28:07.610Z,19.6
2022-08-16T05:29:13.704Z,19.2
2022-08-16T05:30:19.821Z,19.9
2022-08-16T05:31:25.927Z,19.6
2022-08-16T05:32:32.030Z,19.2
2022-08-16T05:33:38.125Z,19.6
2022-08-16T05:34:44.230Z,19.2
2022-08-16T05:35:50.309Z,19.6
2022-08-16T05:36:56.402Z,19.2
2022-08-16T05:38:02.474Z,19.2
2022-08-16T05:39:08.569Z,19.6
2022-08-16T05:40:14.642Z,19.2
2022-08-16T05:41:20.712Z,19.6
2022-08-16T05:42:26.798Z,19.2
2022-08-16T05:43:32.866Z,18.9
2022-08-16T05:44:38.938Z,18.9
2022-08-16T05:45:44.999Z,19.6
2022-08-16T05:46:51.063Z,19.9
2022-08-16T05:47:57.129Z,19.2
2022-08-16T05:49:03.186Z,19.2
2022-08-16T05:50:09.240Z,18.9
2022-08-16T05:51:15.304Z,19.6
2022-08-16T05:52:21.353Z,19.2
2022-08-16T05:53:27.403Z,19.2
2022-08-16T05:54:33.445Z,19.2
2022-08-16T05:55:39.567Z,19.2
2022-08-16T05:56:45.674Z,19.2
2022-08-16T05:57:51.788Z,19.2
2022-08-16T05:58:57.893Z,19.6
2022-08-16T06:00:03.989Z,19.2
2022-08-16T06:01:10.109Z,19.6
2022-08-16T06:02:16.200Z,19.2
2022-08-16T06:03:22.318Z,19.6
2022-08-16T06:04:28.406Z,19.6
2022-08-16T06:05:34.512Z,18.9
2022-08-16T06:06:40.603Z,19.2
2022-08-16T06:07:46.691Z,18.9
2022-08-16T06:08:52.781Z,19.2
2022-08-16T06:09:58.999Z,18.9
2022-08-16T06:11:05.204Z,19.9
2022-08-16T06:12:11.412Z,19.9
2022-08-16T06:13:17.605Z,18.9
2022-08-16T06:14:23.811Z,19.2
2022-08-16T06:15:30.009Z,19.2
2022-08-16T06:16:36.200Z,18.9
2022-08-16T06:17:41.373Z,19.6
2022-08-16T06:18:47.356Z,18.9
2022-08-16T06:19:53.340Z,19.2
2022-08-16T06:20:59.327Z,19.2
2022-08-16T06:22:05.311Z,19.6
2022-08-16T06:23:11.307Z,19.2
2022-08-16T06:24:17.283Z,19.2
2022-08-16T06:25:23.278Z,19.6
2022-08-16T06:26:29.255Z,19.2
2022-08-16T06:27:35.242Z,19.2
2022-08-16T06:28:41.221Z,19.2
2022-08-16T06:29:47.191Z,19.9
2022-08-16T06:30:53.174Z,19.2
2022-08-16T06:31:59.142Z,19.6
2022-08-16T06:33:05.115Z,19.2
2022-08-16T06:34:11.088Z,19.6
2022-08-16T06:35:17.077Z,19.2
2022-08-16T06:36:23.045Z,19.2
2022-08-16T06:37:29.003Z,19.6
2022-08-16T06:38:34.966Z,18.9
2022-08-16T06:39:40.933Z,18.9
2022-08-16T06:40:46.916Z,19.2
2022-08-16T06:41:52.864Z,19.6
2022-08-16T06:42:58.843Z,19.9
2022-08-16T06:44:04.805Z,19.6
2022-08-16T06:45:10.840Z,18.9
2022-08-16T06:46:16.899Z,19.6
2022-08-16T06:47:22.932Z,19.2
2022-08-16T06:48:28.999Z,19.2
2022-08-16T06:49:34.998Z,19.9
2022-08-16T06:50:41.033Z,19.2
2022-08-16T06:51:47.071Z,19.6
2022-08-16T06:52:53.084Z,19.6
2022-08-16T06:53:59.112Z,19.2
2022-08-16T06:55:05.131Z,19.2
2022-08-16T06:56:11.179Z,19.6
2022-08-16T06:57:17.192Z,19.2
2022-08-16T06:58:23.205Z,19.6
2022-08-16T06:59:29.359Z,19.2
2022-08-16T07:00:35.501Z,19.2
2022-08-16T07:01:41.638Z,19.6
2022-08-16T07:02:47.769Z,18.9
2022-08-16T07:03:53.904Z,18.9
2022-08-16T07:05:00.055Z,19.9
2022-08-16T07:06:06.184Z,19.2
2022-08-16T07:07:12.314Z,19.2
2022-08-16T07:08:18.448Z,18.9
2022-08-16T07:09:24.576Z,18.9
2022-08-16T07:10:30.703Z,19.6
2022-08-16T07:11:36.838Z,19.6
2022-08-16T07:12:42.960Z,19.9
2022-08-16T07:15:17.649Z,19.6
2022-08-16T07:16:22.977Z,19.2
2022-08-16T07:17:28.975Z,19.2
2022-08-16T07:18:34.965Z,19.6
2022-08-16T07:19:40.969Z,18.9
2022-08-16T07:20:46.970Z,18.9
2022-08-16T07:21:52.970Z,19.2
2022-08-16T07:22:58.956Z,19.2
2022-08-16T07:24:04.952Z,18.9
2022-08-16T07:25:10.939Z,19.2
2022-08-16T07:26:24.317Z,19.9
2022-08-16T07:27:22.927Z,19.6
2022-08-16T07:28:28.913Z,19.6
2022-08-16T07:29:34.911Z,19.2
2022-08-16T07:30:40.897Z,19.2
2022-08-16T07:31:46.901Z,19.6
2022-08-16T07:32:52.890Z,19.2
2022-08-16T07:33:58.883Z,19.6
2022-08-16T07:35:04.869Z,19.6
2022-08-16T07:36:10.850Z,19.2
2022-08-16T07:37:16.847Z,19.2
2022-08-16T07:38:22.832Z,18.9
2022-08-16T07:39:28.820Z,19.6
2022-08-16T07:40:34.891Z,19.2
2022-08-16T07:41:40.802Z,19.2
2022-08-16T07:42:46.788Z,19.2
2022-08-16T07:43:52.912Z,19.6
2022-08-16T07:44:59.017Z,19.9
2022-08-16T07:46:05.127Z,19.6
2022-08-16T07:47:11.225Z,19.2
2022-08-16T07:48:17.328Z,19.2
2022-08-16T07:49:23.440Z,19.2
2022-08-16T07:50:29.528Z,19.2
2022-08-16T07:51:35.628Z,19.2
2022-08-16T07:52:41.720Z,19.6
2022-08-16T07:53:47.817Z,18.6
2022-08-16T07:54:53.942Z,19.2
2022-08-16T07:56:00.025Z,19.6
2022-08-16T07:57:06.111Z,19.6
2022-08-16T07:58:12.456Z,19.2
2022-08-16T07:59:18.800Z,19.6
2022-08-16T08:00:25.147Z,19.6
2022-08-16T08:01:31.485Z,19.6
2022-08-16T08:02:37.824Z,19.2
2022-08-16T08:03:44.147Z,19.9
2022-08-16T08:04:50.492Z,19.6
2022-08-16T08:05:56.829Z,19.6
2022-08-16T08:07:03.167Z,19.2
2022-08-16T08:08:09.505Z,19.6
2022-08-16T08:09:15.812Z,19.9
2022-08-16T08:10:22.156Z,19.9
2022-08-16T08:11:28.477Z,19.6
2022-08-16T08:14:07.296Z,19.6
2022-08-16T08:16:00.861Z,19.9
2022-08-16T08:17:06.768Z,19.9
2022-08-16T08:18:12.644Z,19.9
2022-08-16T08:19:18.544Z,19.6
2022-08-16T08:20:24.419Z,19.6
2022-08-16T08:21:30.329Z,19.9
2022-08-16T08:22:36.216Z,19.6
2022-08-16T08:23:42.094Z,19.2
2022-08-16T08:24:47.982Z,19.9
2022-08-16T08:25:53.864Z,19.6
2022-08-16T08:26:59.747Z,19.9
2022-08-16T08:28:05.634Z,19.2
2022-08-16T08:29:11.526Z,19.9
2022-08-16T08:30:17.419Z,19.9
2022-08-16T08:31:23.291Z,19.9
2022-08-16T08:32:29.178Z,19.6
2022-08-16T08:33:35.064Z,19.2
2022-08-16T08:34:40.947Z,19.6
2022-08-16T08:35:46.834Z,19.9
2022-08-16T08:36:52.724Z,19.6
2022-08-16T08:37:58.600Z,19.6
2022-08-16T08:39:04.483Z,20.2
2022-08-16T08:40:10.363Z,19.9
2022-08-16T08:41:16.247Z,19.9
2022-08-16T08:42:22.112Z,19.9
2022-08-16T08:43:28.075Z,20.2
2022-08-16T08:44:34.040Z,19.9
2022-08-16T08:45:39.991Z,19.9
2022-08-16T08:46:45.986Z,19.9
2022-08-16T08:47:51.917Z,19.6
2022-08-16T08:48:57.875Z,19.9
2022-08-16T08:50:03.845Z,19.9
2022-08-16T08:51:09.813Z,19.6
2022-08-16T08:52:15.768Z,19.9
2022-08-16T08:53:21.717Z,19.6
2022-08-16T08:54:27.692Z,19.9
2022-08-16T08:55:33.653Z,20.2
2022-08-16T08:56:39.607Z,19.9
2022-08-16T08:57:45.707Z,20.2
2022-08-16T08:58:51.791Z,20.8
2022-08-16T08:59:57.915Z,20.2
2022-08-16T09:01:03.987Z,20.2
2022-08-16T09:02:10.077Z,19.9
2022-08-16T09:03:16.172Z,19.9
2022-08-16T09:04:22.258Z,19.6
2022-08-16T09:05:28.359Z,20.2
2022-08-16T09:06:34.451Z,19.2
2022-08-16T09:07:40.551Z,19.9
2022-08-16T09:08:46.690Z,19.9
2022-08-16T09:09:52.734Z,19.9
2022-08-16T09:10:58.817Z,19.9
2022-08-16T09:12:05.163Z,20.5
2022-08-16T09:13:11.500Z,20.5
2022-08-16T09:14:17.847Z,19.9
2022-08-16T09:15:24.187Z,19.9
2022-08-16T09:16:30.525Z,20.2
2022-08-16T09:17:36.881Z,20.5
2022-08-16T09:18:43.221Z,20.2
2022-08-16T09:19:49.555Z,19.9
2022-08-16T09:20:55.911Z,19.9
2022-08-16T09:22:02.262Z,19.9
2022-08-16T09:23:07.498Z,20.2
2022-08-16T09:24:13.383Z,20.5
2022-08-16T09:25:19.287Z,20.2
2022-08-16T09:26:25.193Z,20.2
2022-08-16T09:27:31.092Z,19.9
2022-08-16T09:28:36.999Z,20.5
2022-08-16T09:29:42.952Z,19.9
2022-08-16T09:30:48.818Z,19.9
2022-08-16T09:31:54.720Z,19.9
2022-08-16T09:33:00.631Z,20.5
2022-08-16T09:34:06.543Z,20.2
2022-08-16T09:35:12.459Z,20.2
2022-08-16T09:36:18.391Z,20.2
2022-08-16T09:37:24.281Z,20.2
2022-08-16T09:38:30.196Z,19.9
2022-08-16T09:39:36.120Z,20.5
2022-08-16T09:40:42.068Z,20.5
2022-08-16T09:41:47.953Z,20.5
2022-08-16T09:42:53.865Z,20.5
2022-08-16T09:43:59.785Z,20.5
2022-08-16T09:45:05.715Z,19.9
2022-08-16T09:46:11.646Z,20.2
2022-08-16T09:47:17.558Z,20.2
2022-08-16T09:48:23.492Z,20.5
2022-08-16T09:49:29.395Z,20.2
2022-08-16T09:50:35.410Z,20.8
2022-08-16T09:51:41.413Z,20.2
2022-08-16T09:52:47.415Z,20.2
2022-08-16T09:53:53.411Z,20.2
2022-08-16T09:54:59.422Z,20.2
2022-08-16T09:56:05.422Z,20.2
2022-08-16T09:57:11.429Z,20.5
2022-08-16T09:58:17.436Z,20.5
2022-08-16T09:59:23.452Z,20.8
2022-08-16T10:00:29.455Z,20.5
2022-08-16T10:01:35.458Z,20.5
2022-08-16T10:02:42.970Z,20.8
2022-08-16T10:03:47.494Z,20.8
2022-08-16T10:04:53.672Z,20.5
2022-08-16T10:05:59.778Z,20.2
2022-08-16T10:07:05.938Z,20.5
2022-08-16T10:08:12.063Z,20.8
2022-08-16T10:09:18.207Z,21.2
2022-08-16T10:10:24.364Z,20.8
2022-08-16T10:11:30.504Z,20.8
2022-08-16T10:12:36.684Z,20.8
2022-08-16T10:13:42.797Z,20.8
2022-08-16T10:14:48.914Z,20.8
2022-08-16T10:15:55.073Z,20.8
2022-08-16T10:17:01.205Z,20.2
2022-08-16T10:18:07.362Z,20.8
2022-08-16T10:20:42.131Z,20.8
2022-08-16T10:21:47.431Z,20.8
2022-08-16T10:22:53.362Z,20.5
2022-08-16T10:23:59.322Z,20.2
2022-08-16T10:25:05.265Z,20.8
2022-08-16T10:26:11.227Z,20.5
2022-08-16T10:27:17.172Z,21.2
2022-08-16T10:28:23.120Z,21.2
2022-08-16T10:29:29.094Z,20.5
2022-08-16T10:30:35.037Z,21.2
2022-08-16T10:31:40.982Z,20.8
2022-08-16T10:32:46.950Z,20.8
2022-08-16T10:33:52.892Z,20.5
2022-08-16T10:34:58.851Z,20.8
2022-08-16T10:36:04.812Z,21.2
2022-08-16T10:37:10.798Z,20.8
2022-08-16T10:38:16.745Z,21.2
2022-08-16T10:39:22.698Z,20.8
2022-08-16T10:40:28.671Z,21.2
2022-08-16T10:41:34.623Z,21.2
2022-08-16T10:42:40.589Z,20.5
2022-08-16T10:43:46.552Z,20.5
2022-08-16T10:44:52.525Z,20.8
2022-08-16T10:45:58.488Z,21.5
2022-08-16T10:47:04.485Z,21.2
2022-08-16T10:48:10.424Z,20.8
2022-08-16T10:49:16.466Z,20.8
2022-08-16T10:50:22.514Z,21.2
2022-08-16T10:51:28.541Z,20.5
2022-08-16T10:52:34.583Z,20.8
2022-08-16T10:53:40.632Z,21.2
2022-08-16T10:54:46.677Z,20.5
2022-08-16T10:55:52.734Z,20.8
2022-08-16T10:56:58.737Z,20.8
2022-08-16T10:58:04.793Z,21.8
2022-08-16T10:59:10.874Z,20.8
2022-08-16T11:00:16.878Z,20.8
2022-08-16T11:01:22.928Z,21.2
2022-08-16T11:02:28.974Z,21.5
2022-08-16T11:03:35.138Z,21.2
2022-08-16T11:04:41.303Z,21.2
2022-08-16T11:05:47.485Z,21.2
2022-08-16T11:06:53.646Z,21.5
2022-08-16T11:07:59.805Z,21.2
2022-08-16T11:09:05.984Z,21.5
2022-08-16T11:10:12.121Z,20.8
2022-08-16T11:11:18.271Z,21.2
2022-08-16T11:12:24.436Z,21.8
2022-08-16T11:13:30.580Z,21.8
2022-08-16T11:14:36.764Z,20.8
2022-08-16T11:15:42.904Z,21.5
2022-08-16T11:16:49.091Z,21.8
2022-08-16T11:17:55.496Z,20.8
2022-08-16T11:19:00.784Z,20.8
2022-08-16T11:20:06.764Z,21.5
2022-08-16T11:21:12.724Z,21.2
2022-08-16T11:22:18.676Z,21.8
2022-08-16T11:23:24.641Z,21.5
2022-08-16T11:24:30.611Z,21.5
2022-08-16T11:25:36.601Z,21.8
2022-08-16T11:26:42.546Z,22.1
2022-08-16T11:27:48.548Z,21.8
2022-08-16T11:28:54.480Z,21.5
2022-08-16T11:30:00.446Z,21.2
2022-08-16T11:31:06.420Z,21.5
2022-08-16T11:32:12.373Z,21.2
2022-08-16T11:33:18.346Z,21.5
2022-08-16T11:34:24.316Z,21.5
2022-08-16T11:35:30.301Z,21.8
2022-08-16T11:36:36.247Z,21.5
2022-08-16T11:37:42.226Z,21.5
2022-08-16T11:38:48.173Z,21.8
2022-08-16T11:39:54.142Z,21.2
2022-08-16T11:41:00.113Z,21.2
2022-08-16T11:42:06.076Z,21.8
2022-08-16T11:43:12.040Z,22.5
2022-08-16T11:44:18.008Z,21.8
2022-08-16T11:45:23.978Z,21.8
2022-08-16T11:46:30.028Z,21.8
2022-08-16T11:47:36.082Z,21.8
2022-08-16T11:48:42.127Z,21.8
2022-08-16T11:49:48.169Z,21.5
2022-08-16T11:50:54.217Z,21.2
2022-08-16T11:52:00.272Z,21.8
2022-08-16T11:53:06.311Z,21.5
2022-08-16T11:54:12.364Z,21.8
2022-08-16T11:55:18.418Z,21.5
2022-08-16T11:56:24.453Z,22.5
2022-08-16T11:57:30.492Z,21.5
2022-08-16T11:58:36.575Z,21.8
2022-08-16T11:59:42.607Z,22.1
2022-08-16T12:00:48.787Z,21.8
2022-08-16T12:01:54.951Z,21.8
2022-08-16T12:03:01.134Z,22.1
2022-08-16T12:04:07.298Z,21.8
2022-08-16T12:05:13.469Z,21.5
2022-08-16T12:06:19.636Z,22.1
2022-08-16T12:07:25.808Z,22.1
2022-08-16T12:08:31.973Z,22.5
2022-08-16T12:09:38.144Z,21.8
2022-08-16T12:10:44.302Z,21.8
2022-08-16T12:11:50.469Z,22.1
2022-08-16T12:12:56.629Z,21.5
2022-08-16T12:14:02.791Z,21.5
2022-08-16T12:16:37.564Z,22.5
2022-08-16T12:17:42.860Z,22.1
2022-08-16T12:18:48.826Z,22.1
2022-08-16T12:19:54.775Z,21.8
2022-08-16T12:21:00.737Z,22.5
2022-08-16T12:22:06.687Z,21.8
2022-08-16T12:23:12.655Z,22.1
2022-08-16T12:24:18.604Z,22.5
2022-08-16T12:25:24.579Z,21.5
2022-08-16T12:26:30.533Z,22.1
2022-08-16T12:27:36.500Z,22.5
2022-08-16T12:28:42.456Z,21.8
2022-08-16T12:29:48.421Z,21.8
2022-08-16T12:30:54.390Z,22.1
2022-08-16T12:32:00.368Z,22.1
2022-08-16T12:33:06.331Z,21.8
2022-08-16T12:34:12.307Z,21.8
2022-08-16T12:35:18.278Z,21.8
2022-08-16T12:36:24.262Z,22.5
2022-08-16T12:37:30.274Z,22.5
2022-08-16T12:38:36.201Z,22.1
2022-08-16T12:39:42.174Z,21.8
2022-08-16T12:40:48.148Z,22.5
2022-08-16T12:41:54.115Z,22.8
2022-08-16T12:43:00.087Z,22.1
2022-08-16T12:44:06.071Z,22.1
2022-08-16T12:45:12.124Z,22.8
2022-08-16T12:46:18.142Z,22.1
2022-08-16T12:47:24.206Z,22.5
2022-08-16T12:48:30.231Z,22.1
2022-08-16T12:49:36.282Z,22.5
2022-08-16T12:50:42.336Z,22.1
2022-08-16T12:51:48.379Z,22.5
2022-08-16T12:52:54.419Z,22.5
2022-08-16T12:54:00.485Z,22.5
2022-08-16T12:55:06.503Z,22.1
2022-08-16T12:56:12.550Z,22.5
2022-08-16T12:57:18.606Z,22.1
2022-08-16T12:58:24.643Z,22.8
2022-08-16T12:59:30.814Z,23.1
2022-08-16T13:00:36.985Z,22.1
2022-08-16T13:01:43.154Z,22.8
2022-08-16T13:02:49.320Z,22.5
2022-08-16T13:03:55.490Z,22.5
2022-08-16T13:05:01.664Z,22.5
2022-08-16T13:06:07.847Z,22.1
2022-08-16T13:07:13.991Z,22.5
2022-08-16T13:08:20.185Z,22.5
2022-08-16T13:09:26.348Z,22.5
2022-08-16T13:10:32.510Z,22.8
2022-08-16T13:11:38.671Z,22.1
2022-08-16T13:12:44.849Z,22.5
2022-08-16T13:15:41.618Z,22.1
2022-08-16T13:16:46.928Z,23.1
2022-08-16T13:17:52.899Z,22.5
2022-08-16T13:18:58.879Z,22.5
2022-08-16T13:20:04.863Z,22.8
2022-08-16T13:21:10.841Z,22.8
2022-08-16T13:22:16.820Z,22.1
2022-08-16T13:23:22.803Z,22.8
2022-08-16T13:24:28.782Z,23.1
2022-08-16T13:25:34.763Z,22.5
2022-08-16T13:26:40.735Z,22.1
2022-08-16T13:27:46.712Z,22.5
2022-08-16T13:28:52.693Z,22.8
2022-08-16T13:29:58.663Z,22.8
2022-08-16T13:31:04.668Z,22.5
2022-08-16T13:32:10.631Z,22.5
2022-08-16T13:33:16.650Z,22.1
2022-08-16T13:34:22.609Z,23.1
2022-08-16T13:35:28.600Z,22.5
2022-08-16T13:36:34.575Z,22.1
2022-08-16T13:37:40.561Z,22.5
2022-08-16T13:38:46.556Z,22.5
2022-08-16T13:39:52.546Z,22.5
2022-08-16T13:40:58.545Z,22.8
2022-08-16T13:42:04.530Z,22.8
2022-08-16T13:43:10.516Z,22.5
2022-08-16T13:44:16.591Z,22.5
2022-08-16T13:45:22.668Z,22.1
2022-08-16T13:46:28.735Z,22.8
2022-08-16T13:47:34.800Z,23.1
2022-08-16T13:48:40.855Z,22.8
2022-08-16T13:49:46.923Z,22.5
2022-08-16T13:50:52.991Z,23.1
2022-08-16T13:51:59.057Z,22.5
2022-08-16T13:53:05.112Z,22.8
2022-08-16T13:54:11.186Z,22.5
2022-08-16T13:55:17.260Z,22.8
2022-08-16T13:56:23.305Z,22.8
2022-08-16T13:57:29.376Z,22.8
2022-08-16T13:58:35.564Z,22.8
2022-08-16T13:59:41.770Z,22.8
2022-08-16T14:00:47.945Z,22.1
2022-08-16T14:01:54.132Z,22.8
2022-08-16T14:03:00.323Z,22.5
2022-08-16T14:04:06.502Z,22.8
2022-08-16T14:05:12.681Z,22.5
2022-08-16T14:06:18.874Z,22.8
2022-08-16T14:07:25.054Z,22.5
2022-08-16T14:08:31.244Z,22.8
2022-08-16T14:09:37.417Z,22.5
2022-08-16T14:10:43.589Z,22.8
2022-08-16T14:11:49.768Z,22.5
2022-08-16T14:14:24.582Z,22.8
2022-08-16T14:15:29.890Z,22.8
2022-08-16T14:16:35.863Z,22.5
2022-08-16T14:17:49.441Z,22.8
2022-08-16T14:18:47.816Z,23.1
2022-08-16T14:19:53.781Z,22.5
2022-08-16T14:20:59.760Z,22.5
2022-08-16T14:22:05.735Z,23.1
2022-08-16T14:23:11.705Z,22.1
2022-08-16T14:24:17.679Z,22.5
2022-08-16T14:25:23.641Z,23.1
2022-08-16T14:26:29.687Z,23.1
2022-08-16T14:27:35.590Z,22.8
2022-08-16T14:28:41.552Z,22.5
2022-08-16T14:29:47.525Z,23.1
2022-08-16T14:30:53.494Z,22.1
2022-08-16T14:31:59.466Z,22.8
2022-08-16T14:33:05.431Z,22.8
2022-08-16T14:34:11.394Z,22.8
2022-08-16T14:35:17.359Z,22.5
2022-08-16T14:36:23.338Z,23.1
2022-08-16T14:37:29.303Z,23.1
2022-08-16T14:38:35.290Z,22.8
2022-08-16T14:39:41.240Z,23.1
2022-08-16T14:40:47.210Z,22.8
2022-08-16T14:41:53.182Z,22.5
2022-08-16T14:42:59.231Z,22.8
2022-08-16T14:44:05.270Z,23.1
2022-08-16T14:45:11.314Z,23.1
2022-08-16T14:46:17.367Z,22.8
2022-08-16T14:47:23.407Z,23.1
2022-08-16T14:48:29.466Z,22.8
2022-08-16T14:49:35.518Z,23.1